createdAt,value
2024-02-24T00:00:22.059Z,33.70
2024-02-24T00:01:23.891Z,33.88
2024-02-24T00:02:25.503Z,34.15
2024-02-24T00:03:27.035Z,33.95
2024-02-24T00:04:30.236Z,28.30
2024-02-24T00:05:31.857Z,30.95
2024-02-24T00:06:33.497Z,35.58
2024-02-24T00:07:35.100Z,36.58
2024-02-24T00:08:36.755Z,34.22
2024-02-24T00:09:38.408Z,31.80
2024-02-24T00:10:40.040Z,31.27
2024-02-24T00:11:44.589Z,33.85
2024-02-24T00:12:46.259Z,30.85
2024-02-24T00:13:48.119Z,33.15
2024-02-24T00:14:49.704Z,32.08
2024-02-24T00:15:51.379Z,39.58
2024-02-24T00:16:53.137Z,35.85
2024-02-24T00:17:54.858Z,35.70
2024-02-24T00:18:57.755Z,36.70
2024-02-24T00:19:59.327Z,40.83
2024-02-24T00:21:00.915Z,37.63
2024-02-24T00:22:02.519Z,41.60
2024-02-24T00:23:04.360Z,41.63
2024-02-24T00:24:06.426Z,38.90
2024-02-24T00:25:08.017Z,39.55
2024-02-24T00:26:09.591Z,40.72
2024-02-24T00:27:11.173Z,39.38
2024-02-24T00:28:12.761Z,36.75
2024-02-24T00:29:14.401Z,35.45
2024-02-24T00:30:16.676Z,38.88
2024-02-24T00:31:18.339Z,42.80
2024-02-24T00:32:20.125Z,38.85
2024-02-24T00:33:21.840Z,37.83
2024-02-24T00:34:23.403Z,35.38
2024-02-24T00:35:29.288Z,37.65
2024-02-24T00:36:31.003Z,36.22
2024-02-24T00:37:32.644Z,36.53
2024-02-24T00:38:34.242Z,35.25
2024-02-24T00:39:35.781Z,34.92
2024-02-24T00:40:37.326Z,34.55
2024-02-24T00:41:38.950Z,36.13
2024-02-24T00:42:40.558Z,35.28
2024-02-24T00:43:45.074Z,51.35
2024-02-24T00:44:46.692Z,61.40
2024-02-24T00:45:48.776Z,63.50
2024-02-24T00:46:50.351Z,63.65
2024-02-24T00:47:52.097Z,65.70
2024-02-24T00:48:53.724Z,64.18
2024-02-24T00:49:55.290Z,67.43
2024-02-24T00:50:56.891Z,71.47
2024-02-24T00:51:58.446Z,68.93
2024-02-24T00:53:00.058Z,65.35
2024-02-24T00:54:01.742Z,63.08
2024-02-24T00:55:03.716Z,72.68
2024-02-24T00:56:05.852Z,62.15
2024-02-24T00:57:07.551Z,50.72
2024-02-24T00:58:09.110Z,38.45
2024-02-24T00:59:10.648Z,37.85
2024-02-24T01:00:12.602Z,36.40
2024-02-24T01:01:14.392Z,40.85
2024-02-24T01:02:16.039Z,37.03
2024-02-24T01:03:17.661Z,40.17
2024-02-24T01:04:21.481Z,37.92
2024-02-24T01:05:25.143Z,37.53
2024-02-24T01:06:26.750Z,34.78
2024-02-24T01:07:28.297Z,37.15
2024-02-24T01:08:29.935Z,35.85
2024-02-24T01:09:31.582Z,40.30
2024-02-24T01:10:33.202Z,37.75
2024-02-24T01:11:34.869Z,48.08
2024-02-24T01:12:36.671Z,49.28
2024-02-24T01:13:38.395Z,77.07
2024-02-24T01:14:40.387Z,80.13
2024-02-24T01:15:41.980Z,53.45
2024-02-24T01:16:45.663Z,37.30
2024-02-24T01:17:48.054Z,46.50
2024-02-24T01:18:52.438Z,42.92
2024-02-24T01:19:54.114Z,37.20
2024-02-24T01:20:56.231Z,35.28
2024-02-24T01:21:58.689Z,41.15
2024-02-24T01:23:01.601Z,43.05
2024-02-24T01:24:03.463Z,48.20
2024-02-24T01:25:05.457Z,53.17
2024-02-24T01:26:06.980Z,48.92
2024-02-24T01:27:08.574Z,56.72
2024-02-24T01:28:10.137Z,93.93
2024-02-24T01:29:11.720Z,61.67
2024-02-24T01:30:13.415Z,38.55
2024-02-24T01:31:15.034Z,39.92
2024-02-24T01:32:18.091Z,36.20
2024-02-24T01:33:19.814Z,33.72
2024-02-24T01:34:21.672Z,29.98
2024-02-24T01:35:23.333Z,30.25
2024-02-24T01:36:27.866Z,29.63
2024-02-24T01:37:29.495Z,28.73
2024-02-24T01:38:31.123Z,28.17
2024-02-24T01:39:33.540Z,29.08
2024-02-24T01:40:35.176Z,32.83
2024-02-24T01:41:36.831Z,29.30
2024-02-24T01:42:38.466Z,30.58
2024-02-24T01:43:40.054Z,28.83
2024-02-24T01:44:41.638Z,34.33
2024-02-24T01:45:43.308Z,32.45
2024-02-24T01:46:48.730Z,47.75
2024-02-24T01:47:51.945Z,88.90
2024-02-24T01:48:53.825Z,57.05
2024-02-24T01:49:56.738Z,46.03
2024-02-24T01:50:59.966Z,37.63
2024-02-24T01:52:02.044Z,39.75
2024-02-24T01:53:04.750Z,39.53
2024-02-24T01:54:07.002Z,35.28
2024-02-24T01:55:09.216Z,33.95
2024-02-24T01:56:11.428Z,33.92
2024-02-24T01:57:13.772Z,32.33
2024-02-24T01:58:18.433Z,33.75
2024-02-24T01:59:20.087Z,34.17
2024-02-24T02:00:21.767Z,35.50
2024-02-24T02:01:23.644Z,33.38
2024-02-24T02:02:25.272Z,31.73
2024-02-24T02:03:27.457Z,34.50
2024-02-24T02:04:29.221Z,31.20
2024-02-24T02:05:30.988Z,32.72
2024-02-24T02:06:33.814Z,28.85
2024-02-24T02:07:36.610Z,28.60
2024-02-24T02:08:38.556Z,31.10
2024-02-24T02:10:12.465Z,32.67
2024-02-24T02:11:14.164Z,29.88
2024-02-24T02:12:15.869Z,28.50
2024-02-24T02:13:19.096Z,32.60
2024-02-24T02:14:20.726Z,35.35
2024-02-24T02:15:22.412Z,30.98
2024-02-24T02:16:24.270Z,30.48
2024-02-24T02:17:25.942Z,31.23
2024-02-24T02:18:28.977Z,32.13
2024-02-24T02:19:31.810Z,29.60
2024-02-24T02:20:34.446Z,31.98
2024-02-24T02:21:38.400Z,32.50
2024-02-24T02:22:39.969Z,28.73
2024-02-24T02:23:41.618Z,30.27
2024-02-24T02:24:47.000Z,29.83
2024-02-24T02:25:48.589Z,32.17
2024-02-24T02:26:50.247Z,30.15
2024-02-24T02:27:51.787Z,30.90
2024-02-24T02:28:53.326Z,30.02
2024-02-24T02:29:54.860Z,30.88
2024-02-24T02:30:56.838Z,28.75
2024-02-24T02:31:59.150Z,29.92
2024-02-24T02:33:01.200Z,29.10
2024-02-24T02:34:02.986Z,33.88
2024-02-24T02:35:06.243Z,27.98
2024-02-24T02:36:08.131Z,30.58
2024-02-24T02:37:09.731Z,31.02
2024-02-24T02:38:11.687Z,31.67
2024-02-24T02:39:13.456Z,28.48
2024-02-24T02:40:15.844Z,32.88
2024-02-24T02:41:17.469Z,29.73
2024-02-24T02:42:19.087Z,27.38
2024-02-24T02:43:20.764Z,34.00
2024-02-24T02:44:22.635Z,31.50
2024-02-24T02:45:24.325Z,29.25
2024-02-24T02:46:25.926Z,27.98
2024-02-24T02:47:27.723Z,32.15
2024-02-24T02:48:29.461Z,30.17
2024-02-24T02:49:31.315Z,34.58
2024-02-24T02:50:32.975Z,34.03
2024-02-24T02:51:34.518Z,33.40
2024-02-24T02:52:36.286Z,32.58
2024-02-24T02:53:37.895Z,31.02
2024-02-24T02:54:39.535Z,32.08
2024-02-24T02:55:41.329Z,32.53
2024-02-24T02:56:42.986Z,28.85
2024-02-24T02:57:45.234Z,28.42
2024-02-24T02:58:46.812Z,30.77
2024-02-24T02:59:48.461Z,30.98
2024-02-24T03:00:50.141Z,30.02
2024-02-24T03:01:52.861Z,31.27
2024-02-24T03:02:54.840Z,31.95
2024-02-24T03:03:56.649Z,33.85
2024-02-24T03:04:58.592Z,31.58
2024-02-24T03:06:02.450Z,30.83
2024-02-24T03:07:04.151Z,30.52
2024-02-24T03:08:05.936Z,27.98
2024-02-24T03:09:07.492Z,32.30
2024-02-24T03:10:09.569Z,31.45
2024-02-24T03:11:18.507Z,30.95
2024-02-24T03:12:20.255Z,34.83
2024-02-24T03:13:21.882Z,35.78
2024-02-24T03:14:23.466Z,33.67
2024-02-24T03:15:25.049Z,29.40
2024-02-24T03:16:26.615Z,29.73
2024-02-24T03:17:28.254Z,31.58
2024-02-24T03:18:29.937Z,30.55
2024-02-24T03:19:31.686Z,31.65
2024-02-24T03:20:33.425Z,30.55
2024-02-24T03:21:35.130Z,26.70
2024-02-24T03:22:39.293Z,29.17
2024-02-24T03:23:40.840Z,29.33
2024-02-24T03:24:43.390Z,28.35
2024-02-24T03:25:45.024Z,37.65
2024-02-24T03:26:48.047Z,31.45
2024-02-24T03:27:49.882Z,28.65
2024-02-24T03:28:51.620Z,27.30
2024-02-24T03:29:53.206Z,25.85
2024-02-24T03:30:54.747Z,24.63
2024-02-24T03:31:56.313Z,23.60
2024-02-24T03:32:58.064Z,24.80
2024-02-24T03:33:59.882Z,23.70
2024-02-24T03:35:01.785Z,26.42
2024-02-24T03:36:03.697Z,28.48
2024-02-24T03:37:05.610Z,27.25
2024-02-24T03:38:07.181Z,24.92
2024-02-24T03:39:08.857Z,27.75
2024-02-24T03:40:13.025Z,24.08
2024-02-24T03:41:14.896Z,23.50
2024-02-24T03:42:16.488Z,29.02
2024-02-24T03:43:18.000Z,24.63
2024-02-24T03:44:19.702Z,28.65
2024-02-24T03:45:21.369Z,27.00
2024-02-24T03:46:22.929Z,26.23
2024-02-24T03:47:24.532Z,26.42
2024-02-24T03:48:26.264Z,28.48
2024-02-24T03:49:28.599Z,31.58
2024-02-24T03:50:30.265Z,29.95
2024-02-24T03:51:31.883Z,32.92
2024-02-24T03:52:33.635Z,31.52
2024-02-24T03:53:35.198Z,31.80
2024-02-24T03:54:36.773Z,33.10
2024-02-24T03:55:38.300Z,32.67
2024-02-24T03:56:39.988Z,33.65
2024-02-24T03:57:41.641Z,43.10
2024-02-24T03:58:43.551Z,43.67
2024-02-24T03:59:45.272Z,34.80
2024-02-24T04:00:46.896Z,31.00
2024-02-24T04:01:48.518Z,28.63
2024-02-24T04:02:50.124Z,27.38
2024-02-24T04:03:55.266Z,29.73
2024-02-24T04:04:56.830Z,29.05
2024-02-24T04:05:58.601Z,30.00
2024-02-24T04:07:00.331Z,27.75
2024-02-24T04:08:02.152Z,26.63
2024-02-24T04:09:04.863Z,30.52
2024-02-24T04:10:07.091Z,27.25
2024-02-24T04:11:08.779Z,26.23
2024-02-24T04:12:10.718Z,27.33
2024-02-24T04:13:12.442Z,28.92
2024-02-24T04:14:14.000Z,27.52
2024-02-24T04:15:21.514Z,27.33
2024-02-24T04:16:23.066Z,26.60
2024-02-24T04:17:24.707Z,29.30
2024-02-24T04:18:26.484Z,25.08
2024-02-24T04:19:28.158Z,25.52
2024-02-24T04:20:29.885Z,28.73
2024-02-24T04:21:31.456Z,32.10
2024-02-24T04:22:33.080Z,27.45
2024-02-24T04:23:34.780Z,28.73
2024-02-24T04:24:36.397Z,28.65
2024-02-24T04:25:37.984Z,27.88
2024-02-24T04:26:39.562Z,27.35
2024-02-24T04:27:41.230Z,26.33
2024-02-24T04:28:42.765Z,28.63
2024-02-24T04:29:44.348Z,27.58
2024-02-24T04:30:45.946Z,25.73
2024-02-24T04:31:48.150Z,32.47
2024-02-24T04:32:49.875Z,32.47
2024-02-24T04:33:51.644Z,27.20
2024-02-24T04:34:53.251Z,31.17
2024-02-24T04:35:54.845Z,27.33
2024-02-24T04:36:56.419Z,28.60
2024-02-24T04:37:57.926Z,29.90
2024-02-24T04:38:59.470Z,26.70
2024-02-24T04:40:01.010Z,29.45
2024-02-24T04:41:02.657Z,27.55
2024-02-24T04:42:04.644Z,30.60
2024-02-24T04:43:06.235Z,32.05
2024-02-24T04:44:07.940Z,28.45
2024-02-24T04:45:10.082Z,31.40
2024-02-24T04:46:12.107Z,34.72
2024-02-24T04:47:13.808Z,34.38
2024-02-24T04:48:15.571Z,31.73
2024-02-24T04:49:17.337Z,27.77
2024-02-24T04:50:19.116Z,28.95
2024-02-24T04:51:22.038Z,30.02
2024-02-24T04:52:23.704Z,32.50
2024-02-24T04:53:25.372Z,27.80
2024-02-24T04:54:27.036Z,31.90
2024-02-24T04:55:28.641Z,29.75
2024-02-24T04:56:30.232Z,31.55
2024-02-24T04:57:31.863Z,29.83
2024-02-24T04:58:33.415Z,33.83
2024-02-24T04:59:36.399Z,29.27
2024-02-24T05:00:38.043Z,33.90
2024-02-24T05:01:39.612Z,31.88
2024-02-24T05:02:41.248Z,29.80
2024-02-24T05:03:42.847Z,35.88
2024-02-24T05:04:44.449Z,34.88
2024-02-24T05:05:46.161Z,33.97
2024-02-24T05:06:47.803Z,32.58
2024-02-24T05:07:49.423Z,35.25
2024-02-24T05:08:51.123Z,30.38
2024-02-24T05:09:52.738Z,32.03
2024-02-24T05:10:54.378Z,33.17
2024-02-24T05:11:56.030Z,31.38
2024-02-24T05:12:57.593Z,31.58
2024-02-24T05:13:59.151Z,33.33
2024-02-24T05:15:00.773Z,30.48
2024-02-24T05:16:06.150Z,30.23
2024-02-24T05:17:12.236Z,31.00
2024-02-24T05:18:14.466Z,35.38
2024-02-24T05:19:16.216Z,35.88
2024-02-24T05:20:17.903Z,31.67
2024-02-24T05:21:22.910Z,29.58
2024-02-24T05:22:24.699Z,30.52
2024-02-24T05:23:26.444Z,31.73
2024-02-24T05:24:28.048Z,34.78
2024-02-24T05:25:31.649Z,29.02
2024-02-24T05:26:33.371Z,29.38
2024-02-24T05:27:35.003Z,30.48
2024-02-24T05:28:36.564Z,28.45
2024-02-24T05:29:38.143Z,34.05
2024-02-24T05:30:39.740Z,30.40
2024-02-24T05:31:41.393Z,30.70
2024-02-24T05:32:42.967Z,32.60
2024-02-24T05:33:44.912Z,28.48
2024-02-24T05:34:46.657Z,30.73
2024-02-24T05:35:48.457Z,29.98
2024-02-24T05:36:50.206Z,27.98
2024-02-24T05:37:51.754Z,28.58
2024-02-24T05:38:53.440Z,30.85
2024-02-24T05:39:55.182Z,28.45
2024-02-24T05:40:56.719Z,27.42
2024-02-24T05:41:58.302Z,31.63
2024-02-24T05:42:59.836Z,31.05
2024-02-24T05:44:01.422Z,29.85
2024-02-24T05:45:03.695Z,28.10
2024-02-24T05:46:07.839Z,29.17
2024-02-24T05:47:09.606Z,29.42
2024-02-24T05:48:11.422Z,30.55
2024-02-24T05:49:13.223Z,27.23
2024-02-24T05:50:14.802Z,33.17
2024-02-24T05:51:17.972Z,30.73
2024-02-24T05:52:19.948Z,34.00
2024-02-24T05:53:22.211Z,28.27
2024-02-24T05:54:24.341Z,31.05
2024-02-24T05:55:26.011Z,36.60
2024-02-24T05:56:27.610Z,34.28
2024-02-24T05:57:29.331Z,34.40
2024-02-24T05:58:31.792Z,30.15
2024-02-24T05:59:33.513Z,33.17
2024-02-24T06:00:35.392Z,27.33
2024-02-24T06:01:37.013Z,29.92
2024-02-24T06:02:39.281Z,26.25
2024-02-24T06:03:40.935Z,27.75
2024-02-24T06:04:42.496Z,25.58
2024-02-24T06:05:44.118Z,25.83
2024-02-24T06:06:49.001Z,26.25
2024-02-24T06:07:52.630Z,26.60
2024-02-24T06:08:54.699Z,26.02
2024-02-24T06:09:56.298Z,24.88
2024-02-24T06:10:57.901Z,26.88
2024-02-24T06:11:59.544Z,28.02
2024-02-24T06:13:02.265Z,25.52
2024-02-24T06:14:03.874Z,27.05
2024-02-24T06:15:05.913Z,28.00
2024-02-24T06:16:08.299Z,29.10
2024-02-24T06:17:12.334Z,25.85
2024-02-24T06:18:16.857Z,25.60
2024-02-24T06:19:18.663Z,23.90
2024-02-24T06:20:24.657Z,23.70
2024-02-24T06:21:29.583Z,23.58
2024-02-24T06:22:31.105Z,21.20
2024-02-24T06:23:32.739Z,20.73
2024-02-24T06:24:34.367Z,24.38
2024-02-24T06:25:35.925Z,23.20
2024-02-24T06:26:37.540Z,21.23
2024-02-24T06:27:39.098Z,23.65
2024-02-24T06:28:40.648Z,24.13
2024-02-24T06:29:43.108Z,21.67
2024-02-24T06:30:46.631Z,24.52
2024-02-24T06:31:48.175Z,24.85
2024-02-24T06:32:49.936Z,23.77
2024-02-24T06:33:51.658Z,23.05
2024-02-24T06:34:53.431Z,21.35
2024-02-24T06:35:55.254Z,22.80
2024-02-24T06:36:56.875Z,25.33
2024-02-24T06:37:58.622Z,22.67
2024-02-24T06:39:00.220Z,22.13
2024-02-24T06:40:01.850Z,22.98
2024-02-24T06:41:04.221Z,24.33
2024-02-24T06:42:05.852Z,20.13
2024-02-24T06:43:07.401Z,22.95
2024-02-24T06:44:08.985Z,22.08
2024-02-24T06:45:10.611Z,23.92
2024-02-24T06:46:12.607Z,24.73
2024-02-24T06:47:24.598Z,21.58
2024-02-24T06:48:30.742Z,21.88
2024-02-24T06:49:32.647Z,20.08
2024-02-24T06:50:34.397Z,22.65
2024-02-24T06:51:36.098Z,18.75
2024-02-24T06:52:37.810Z,23.05
2024-02-24T06:53:39.787Z,23.13
2024-02-24T06:54:41.617Z,20.30
2024-02-24T06:55:43.170Z,21.40
2024-02-24T06:56:44.836Z,20.58
2024-02-24T06:57:46.743Z,18.95
2024-02-24T06:58:48.314Z,21.30
2024-02-24T06:59:49.967Z,21.13
2024-02-24T07:00:51.767Z,19.90
2024-02-24T07:01:55.898Z,20.63
2024-02-24T07:02:57.653Z,19.88
2024-02-24T07:03:59.521Z,20.10
2024-02-24T07:05:03.510Z,19.30
2024-02-24T07:06:05.698Z,24.77
2024-02-24T07:07:08.981Z,21.42
2024-02-24T07:08:10.716Z,23.92
2024-02-24T07:09:12.422Z,19.10
2024-02-24T07:10:14.159Z,19.02
2024-02-24T07:11:15.845Z,21.60
2024-02-24T07:12:17.632Z,18.77
2024-02-24T07:13:19.195Z,24.02
2024-02-24T07:14:21.972Z,20.10
2024-02-24T07:15:25.106Z,20.88
2024-02-24T07:16:26.662Z,19.15
2024-02-24T07:17:29.247Z,17.33
2024-02-24T07:18:31.007Z,17.70
2024-02-24T07:19:32.792Z,18.67
2024-02-24T07:20:34.402Z,17.65
2024-02-24T07:21:42.217Z,15.57
2024-02-24T07:22:43.864Z,15.95
2024-02-24T07:23:45.468Z,13.50
2024-02-24T07:24:47.291Z,14.05
2024-02-24T07:25:48.903Z,15.07
2024-02-24T07:26:51.110Z,14.85
2024-02-24T07:27:52.820Z,14.93
2024-02-24T07:28:54.416Z,13.55
2024-02-24T07:29:56.137Z,14.65
2024-02-24T07:30:57.881Z,12.15
2024-02-24T07:31:59.505Z,12.15
2024-02-24T07:33:01.957Z,11.90
2024-02-24T07:34:04.816Z,13.40
2024-02-24T07:35:07.163Z,12.88
2024-02-24T07:36:08.904Z,13.82
2024-02-24T07:37:10.515Z,12.27
2024-02-24T07:38:12.099Z,11.80
2024-02-24T07:39:13.709Z,12.35
2024-02-24T07:40:15.367Z,12.30
2024-02-24T07:41:16.932Z,13.43
2024-02-24T07:42:18.514Z,11.45
2024-02-24T07:43:20.115Z,14.82
2024-02-24T07:44:21.782Z,12.73
2024-02-24T07:45:23.792Z,11.55
2024-02-24T07:46:30.444Z,10.73
2024-02-24T07:47:32.356Z,12.80
2024-02-24T07:48:34.080Z,13.23
2024-02-24T07:49:36.828Z,12.10
2024-02-24T07:50:38.578Z,10.57
2024-02-24T07:51:40.326Z,12.60
2024-02-24T07:52:42.755Z,11.88
2024-02-24T07:53:45.246Z,13.57
2024-02-24T07:54:47.071Z,9.82
2024-02-24T07:55:48.821Z,13.10
2024-02-24T07:56:50.563Z,11.30
2024-02-24T07:57:52.155Z,10.60
2024-02-24T07:58:53.959Z,11.43
2024-02-24T07:59:56.623Z,13.80
2024-02-24T08:00:58.217Z,13.10
2024-02-24T08:01:59.837Z,11.07
2024-02-24T08:03:01.686Z,14.77
2024-02-24T08:04:03.876Z,12.00
2024-02-24T08:05:05.931Z,11.98
2024-02-24T08:06:07.868Z,10.82
2024-02-24T08:07:09.551Z,10.73
2024-02-24T08:08:11.239Z,10.93
2024-02-24T08:09:12.837Z,12.05
2024-02-24T08:10:14.559Z,11.88
2024-02-24T08:11:16.172Z,11.27
2024-02-24T08:12:17.856Z,8.57
2024-02-24T08:13:19.680Z,10.73
2024-02-24T08:14:21.321Z,10.85
2024-02-24T08:15:22.881Z,12.05
2024-02-24T08:16:24.456Z,8.23
2024-02-24T08:17:26.180Z,9.00
2024-02-24T08:18:28.126Z,7.85
2024-02-24T08:19:34.758Z,7.93
2024-02-24T08:20:36.913Z,6.47
2024-02-24T08:21:39.278Z,8.93
2024-02-24T08:22:41.346Z,8.48
2024-02-24T08:23:43.749Z,13.07
2024-02-24T08:24:45.347Z,8.65
2024-02-24T08:25:46.942Z,8.93
2024-02-24T08:26:49.536Z,11.60
2024-02-24T08:27:51.261Z,10.27
2024-02-24T08:28:53.140Z,12.05
2024-02-24T08:29:54.876Z,7.50
2024-02-24T08:30:57.205Z,8.20
2024-02-24T08:31:59.521Z,8.45
2024-02-24T08:33:01.196Z,10.60
2024-02-24T08:34:03.507Z,10.07
2024-02-24T08:35:05.641Z,13.02
2024-02-24T08:36:07.747Z,10.65
2024-02-24T08:37:09.863Z,9.77
2024-02-24T08:38:11.515Z,13.10
2024-02-24T08:39:13.189Z,11.40
2024-02-24T08:40:14.816Z,8.60
2024-02-24T08:41:17.382Z,10.05
2024-02-24T08:42:18.985Z,9.00
2024-02-24T08:43:20.507Z,10.80
2024-02-24T08:44:22.110Z,9.32
2024-02-24T08:45:23.695Z,8.43
2024-02-24T08:46:25.613Z,8.07
2024-02-24T08:47:27.538Z,8.05
2024-02-24T08:48:29.698Z,9.43
2024-02-24T08:49:31.417Z,7.80
2024-02-24T08:50:33.076Z,8.25
2024-02-24T08:51:34.748Z,8.85
2024-02-24T08:52:43.155Z,7.85
2024-02-24T08:53:51.589Z,9.55
2024-02-24T08:54:53.503Z,11.02
2024-02-24T08:55:55.116Z,8.00
2024-02-24T08:56:56.707Z,9.35
2024-02-24T08:57:58.486Z,10.55
2024-02-24T08:59:00.086Z,11.52
2024-02-24T09:00:01.674Z,8.70
2024-02-24T09:01:03.408Z,12.02
2024-02-24T09:02:05.687Z,9.90
2024-02-24T09:03:07.295Z,10.65
2024-02-24T09:04:08.979Z,9.38
2024-02-24T09:05:10.810Z,10.25
2024-02-24T09:06:12.573Z,11.65
2024-02-24T09:07:14.343Z,8.68
2024-02-24T09:08:16.318Z,10.52
2024-02-24T09:09:18.016Z,10.27
2024-02-24T09:10:19.640Z,8.82
2024-02-24T09:11:21.321Z,10.45
2024-02-24T09:12:23.074Z,7.80
2024-02-24T09:13:24.836Z,10.52
2024-02-24T09:14:26.418Z,10.57
2024-02-24T09:15:31.154Z,9.98
2024-02-24T09:16:33.847Z,7.43
2024-02-24T09:17:35.539Z,10.60
2024-02-24T09:18:37.334Z,8.73
2024-02-24T09:19:39.086Z,10.20
2024-02-24T09:20:40.738Z,8.75
2024-02-24T09:21:46.142Z,8.90
2024-02-24T09:22:48.794Z,8.98
2024-02-24T09:23:50.621Z,8.45
2024-02-24T09:24:52.250Z,10.65
2024-02-24T09:25:53.867Z,9.05
2024-02-24T09:26:55.409Z,11.50
2024-02-24T09:27:56.982Z,10.95
2024-02-24T09:28:58.542Z,9.52
2024-02-24T09:30:00.229Z,8.10
2024-02-24T09:31:02.262Z,9.30
2024-02-24T09:32:03.969Z,8.38
2024-02-24T09:33:05.688Z,6.50
2024-02-24T09:34:09.827Z,9.40
2024-02-24T09:35:12.492Z,8.07
2024-02-24T09:36:14.041Z,9.60
2024-02-24T09:37:15.601Z,9.07
2024-02-24T09:38:17.360Z,7.53
2024-02-24T09:39:18.914Z,8.07
2024-02-24T09:40:20.611Z,8.48
2024-02-24T09:41:22.308Z,7.80
2024-02-24T09:42:27.768Z,5.43
2024-02-24T09:43:29.757Z,8.48
2024-02-24T09:44:31.443Z,7.75
2024-02-24T09:45:43.034Z,7.53
2024-02-24T09:46:45.226Z,7.03
2024-02-24T09:47:46.911Z,7.63
2024-02-24T09:48:49.965Z,7.60
2024-02-24T09:49:53.526Z,7.63
2024-02-24T09:50:55.345Z,7.38
2024-02-24T09:51:57.262Z,11.70
2024-02-24T09:52:58.966Z,16.17
2024-02-24T09:54:00.579Z,7.15
2024-02-24T09:55:04.312Z,8.02
2024-02-24T09:56:06.973Z,8.27
2024-02-24T09:57:10.791Z,8.25
2024-02-24T09:58:12.665Z,11.73
2024-02-24T09:59:14.526Z,8.98
2024-02-24T10:00:16.360Z,7.38
2024-02-24T10:01:19.026Z,9.07
2024-02-24T10:02:20.792Z,7.93
2024-02-24T10:03:23.275Z,11.20
2024-02-24T10:04:25.462Z,7.10
2024-02-24T10:05:27.640Z,7.95
2024-02-24T10:06:29.536Z,6.22
2024-02-24T10:07:31.650Z,7.10
2024-02-24T10:08:33.244Z,7.22
2024-02-24T10:09:34.918Z,5.50
2024-02-24T10:10:37.642Z,8.23
2024-02-24T10:11:40.879Z,8.80
2024-02-24T10:13:05.979Z,6.68
2024-02-24T10:14:07.757Z,5.68
2024-02-24T10:15:09.868Z,6.70
2024-02-24T10:16:11.571Z,8.02
2024-02-24T10:17:15.321Z,4.35
2024-02-24T10:18:19.845Z,4.45
2024-02-24T10:19:23.789Z,4.93
2024-02-24T10:20:26.904Z,4.90
2024-02-24T10:21:28.542Z,4.22
2024-02-24T10:22:30.092Z,7.03
2024-02-24T10:23:31.692Z,5.18
2024-02-24T10:24:35.345Z,5.22
2024-02-24T10:25:37.080Z,7.07
2024-02-24T10:26:38.852Z,6.03
2024-02-24T10:27:40.482Z,3.42
2024-02-24T10:28:42.382Z,3.83
2024-02-24T10:29:51.041Z,4.80
2024-02-24T10:30:53.466Z,5.03
2024-02-24T10:31:55.524Z,3.72
2024-02-24T10:33:00.271Z,4.18
2024-02-24T10:34:02.473Z,5.68
2024-02-24T10:35:04.776Z,7.22
2024-02-24T10:36:09.619Z,5.03
2024-02-24T10:37:11.378Z,3.25
2024-02-24T10:38:23.560Z,5.30
2024-02-24T10:39:37.242Z,3.78
2024-02-24T10:40:39.414Z,3.10
2024-02-24T10:41:42.364Z,4.20
2024-02-24T10:42:44.750Z,6.43
2024-02-24T10:43:51.187Z,3.15
2024-02-24T10:44:53.616Z,4.28
2024-02-24T10:45:55.147Z,6.50
2024-02-24T10:46:56.684Z,4.25
2024-02-24T10:47:58.259Z,3.75
2024-02-24T10:49:00.909Z,3.63
2024-02-24T10:50:04.778Z,6.10
2024-02-24T10:51:06.521Z,3.95
2024-02-24T10:52:09.610Z,4.18
2024-02-24T10:53:15.111Z,3.97
2024-02-24T10:54:22.731Z,4.35
2024-02-24T10:55:24.789Z,3.75
2024-02-24T10:56:26.932Z,4.10
2024-02-24T10:57:29.584Z,5.10
2024-02-24T10:58:33.068Z,6.40
2024-02-24T10:59:35.095Z,5.10
2024-02-24T11:00:37.307Z,3.63
2024-02-24T11:01:48.370Z,6.43
2024-02-24T11:02:51.786Z,5.78
2024-02-24T11:03:55.155Z,3.05
2024-02-24T11:05:01.809Z,4.15
2024-02-24T11:06:03.719Z,6.40
2024-02-24T11:07:18.289Z,5.75
2024-02-24T11:08:39.482Z,3.15
2024-02-24T11:09:41.269Z,2.70
2024-02-24T11:10:43.278Z,2.40
2024-02-24T11:11:45.148Z,3.38
2024-02-24T11:12:50.572Z,3.38
2024-02-24T11:14:00.323Z,4.32
2024-02-24T11:15:17.043Z,3.75
2024-02-24T11:16:21.533Z,3.08
2024-02-24T11:17:45.903Z,3.97
2024-02-24T11:18:50.336Z,4.88
2024-02-24T11:19:52.031Z,4.43
2024-02-24T11:20:54.387Z,3.20
2024-02-24T11:21:59.555Z,4.47
2024-02-24T11:23:24.384Z,4.82
2024-02-24T11:24:34.337Z,3.42
2024-02-24T11:25:35.880Z,2.45
2024-02-24T11:26:38.710Z,4.43
2024-02-24T11:27:41.905Z,4.22
2024-02-24T11:29:00.048Z,5.15
2024-02-24T11:30:35.375Z,5.13
2024-02-24T11:31:38.194Z,4.88
2024-02-24T11:32:39.834Z,5.07
2024-02-24T11:33:41.619Z,5.00
2024-02-24T11:34:45.889Z,4.68
2024-02-24T11:35:50.489Z,6.15
2024-02-24T11:36:52.577Z,5.15
2024-02-24T11:37:55.044Z,4.85
2024-02-24T11:38:58.614Z,3.63
2024-02-24T11:40:00.611Z,6.53
2024-02-24T11:41:06.632Z,4.97
2024-02-24T11:42:11.217Z,10.80
2024-02-24T11:43:13.407Z,5.95
2024-02-24T11:44:15.087Z,6.28
2024-02-24T11:45:16.916Z,6.25
2024-02-24T11:46:18.475Z,4.60
2024-02-24T11:47:20.570Z,5.55
2024-02-24T11:48:23.094Z,6.07
2024-02-24T11:49:25.153Z,7.85
2024-02-24T11:50:26.802Z,4.65
2024-02-24T11:51:29.317Z,4.32
2024-02-24T11:52:31.106Z,3.90
2024-02-24T11:53:33.435Z,7.13
2024-02-24T11:54:37.029Z,4.35
2024-02-24T11:55:38.715Z,4.05
2024-02-24T11:56:40.696Z,5.13
2024-02-24T11:57:42.690Z,4.95
2024-02-24T11:58:44.592Z,5.25
2024-02-24T11:59:49.345Z,7.28
2024-02-24T12:00:50.945Z,4.53
2024-02-24T12:01:53.170Z,3.47
2024-02-24T12:02:56.478Z,4.38
2024-02-24T12:03:59.068Z,5.72
2024-02-24T12:05:14.595Z,3.35
2024-02-24T12:06:17.364Z,4.50
2024-02-24T12:07:19.844Z,4.55
2024-02-24T12:08:23.170Z,6.95
2024-02-24T12:09:25.504Z,3.95
2024-02-24T12:10:27.276Z,3.20
2024-02-24T12:11:29.169Z,4.93
2024-02-24T12:12:30.875Z,3.88
2024-02-24T12:13:32.431Z,4.70
2024-02-24T12:14:34.056Z,3.58
2024-02-24T12:15:36.812Z,4.15
2024-02-24T12:16:39.398Z,3.85
2024-02-24T12:17:48.386Z,5.80
2024-02-24T12:18:50.212Z,3.40
2024-02-24T12:19:51.856Z,2.83
2024-02-24T12:20:56.367Z,6.18
2024-02-24T12:21:58.007Z,4.50
2024-02-24T12:23:04.833Z,3.58
2024-02-24T12:24:06.608Z,4.43
2024-02-24T12:25:17.466Z,5.60
2024-02-24T12:26:19.279Z,3.85
2024-02-24T12:27:23.110Z,5.57
2024-02-24T12:28:25.393Z,4.10
2024-02-24T12:29:29.059Z,4.65
2024-02-24T12:30:39.271Z,3.58
2024-02-24T12:31:41.306Z,3.92
2024-02-24T12:32:44.268Z,2.80
2024-02-24T12:33:47.014Z,4.18
2024-02-24T12:34:48.783Z,4.00
2024-02-24T12:35:50.545Z,3.95
2024-02-24T12:36:57.201Z,3.78
2024-02-24T12:37:59.030Z,4.72
2024-02-24T12:39:00.694Z,4.95
2024-02-24T12:40:05.324Z,4.32
2024-02-24T12:41:08.861Z,3.35
2024-02-24T12:42:10.444Z,4.93
2024-02-24T12:43:12.552Z,3.85
2024-02-24T12:44:14.201Z,3.17
2024-02-24T12:45:15.760Z,3.95
2024-02-24T12:46:20.702Z,3.75
2024-02-24T12:47:22.461Z,3.25
2024-02-24T12:48:24.207Z,3.22
2024-02-24T12:49:25.967Z,6.72
2024-02-24T12:50:29.225Z,4.00
2024-02-24T12:51:31.002Z,2.67
2024-02-24T12:52:35.853Z,3.47
2024-02-24T12:53:37.652Z,3.33
2024-02-24T12:54:39.267Z,9.32
2024-02-24T12:55:42.107Z,4.30
2024-02-24T12:56:43.715Z,4.47
2024-02-24T12:57:45.638Z,3.67
2024-02-24T12:58:47.221Z,4.18
2024-02-24T12:59:48.795Z,4.70
2024-02-24T13:00:52.529Z,4.75
2024-02-24T13:01:54.105Z,3.70
2024-02-24T13:03:00.457Z,3.10
2024-02-24T13:04:02.247Z,4.78
2024-02-24T13:05:05.024Z,4.38
2024-02-24T13:06:06.860Z,3.35
2024-02-24T13:07:08.664Z,3.03
2024-02-24T13:08:10.255Z,4.55
2024-02-24T13:09:11.886Z,2.85
2024-02-24T13:10:13.678Z,5.00
2024-02-24T13:11:15.400Z,4.80
2024-02-24T13:12:17.743Z,3.13
2024-02-24T13:13:19.358Z,4.28
2024-02-24T13:14:20.910Z,4.85
2024-02-24T13:15:24.676Z,4.45
2024-02-24T13:16:26.208Z,4.70
2024-02-24T13:17:27.933Z,3.80
2024-02-24T13:18:29.882Z,3.97
2024-02-24T13:19:31.623Z,5.95
2024-02-24T13:20:33.197Z,4.18
2024-02-24T13:21:34.919Z,4.10
2024-02-24T13:22:42.142Z,2.92
2024-02-24T13:23:43.974Z,4.28
2024-02-24T13:24:46.152Z,4.80
2024-02-24T13:25:47.696Z,3.60
2024-02-24T13:26:49.347Z,6.13
2024-02-24T13:27:50.984Z,5.43
2024-02-24T13:28:52.892Z,3.38
2024-02-24T13:29:55.379Z,3.70
2024-02-24T13:30:57.041Z,3.70
2024-02-24T13:31:58.996Z,4.50
2024-02-24T13:33:01.557Z,3.72
2024-02-24T13:34:03.356Z,5.80
2024-02-24T13:35:05.401Z,4.25